createdAt,value
2023-03-26T00:00:15.494Z,1001.05
2023-03-26T00:01:15.493Z,1001.39
2023-03-26T00:02:15.506Z,1001.08
2023-03-26T00:03:15.395Z,1001.08
2023-03-26T00:04:15.325Z,1001.07
2023-03-26T00:05:15.325Z,1001.14
2023-03-26T00:06:15.244Z,1001.05
2023-03-26T00:07:15.220Z,1001.40
2023-03-26T00:08:15.171Z,1001.46
2023-03-26T00:09:15.141Z,1001.05
2023-03-26T00:10:15.061Z,1001.08
2023-03-26T00:11:15.034Z,1001.07
2023-03-26T00:12:15.025Z,1001.13
2023-03-26T00:13:14.968Z,1001.12
2023-03-26T00:14:14.896Z,1001.12
2023-03-26T00:15:14.857Z,1001.14
2023-03-26T00:16:14.839Z,1001.34
2023-03-26T00:17:14.799Z,1001.19
2023-03-26T00:18:14.739Z,1001.50
2023-03-26T00:19:14.718Z,1001.16
2023-03-26T00:20:14.663Z,1001.16
2023-03-26T00:21:14.616Z,1001.21
2023-03-26T00:22:14.581Z,1001.43
2023-03-26T00:23:14.546Z,1001.53
2023-03-26T00:24:14.510Z,1001.46
2023-03-26T00:25:14.452Z,1001.45
2023-03-26T00:26:14.432Z,1001.43
2023-03-26T00:27:14.370Z,1001.09
2023-03-26T00:28:14.309Z,1001.13
2023-03-26T00:29:14.316Z,1001.39
2023-03-26T00:30:14.270Z,1001.10
2023-03-26T00:31:14.248Z,1001.40
2023-03-26T00:32:14.166Z,1001.05
2023-03-26T00:33:14.113Z,1001.08
2023-03-26T00:34:14.103Z,1001.07
2023-03-26T00:35:14.044Z,1001.36
2023-03-26T00:36:14.045Z,1001.21
2023-03-26T00:37:13.950Z,1001.31
2023-03-26T00:38:13.916Z,1000.97
2023-03-26T00:39:13.870Z,1001.01
2023-03-26T00:40:13.843Z,1000.95
2023-03-26T00:41:13.805Z,1001.04
2023-03-26T00:42:13.772Z,1000.92
2023-03-26T00:43:13.708Z,1001.30
2023-03-26T00:44:13.661Z,1001.24
2023-03-26T00:45:13.627Z,1000.88
2023-03-26T00:46:13.630Z,1000.88
2023-03-26T00:47:13.567Z,1000.91
2023-03-26T00:48:13.502Z,1000.92
2023-03-26T00:49:13.464Z,1001.24
2023-03-26T00:50:13.410Z,1000.91
2023-03-26T00:51:13.371Z,1001.12
2023-03-26T00:52:13.338Z,1001.22
2023-03-26T00:53:13.313Z,1001.22
2023-03-26T00:54:13.280Z,1001.20
2023-03-26T00:55:13.219Z,1000.82
2023-03-26T00:56:13.205Z,1001.16
2023-03-26T00:57:18.157Z,1000.85
2023-03-26T00:58:13.076Z,1000.80
2023-03-26T00:59:13.069Z,1000.78
2023-03-26T01:00:12.996Z,1000.90
2023-03-26T01:01:12.968Z,1000.83
2023-03-26T01:02:12.923Z,1000.75
2023-03-26T01:03:19.185Z,1000.78
2023-03-26T01:04:12.994Z,1000.77
2023-03-26T01:05:12.861Z,1000.71
2023-03-26T01:06:12.818Z,1000.73
2023-03-26T01:07:12.692Z,1001.09
2023-03-26T01:08:12.680Z,1000.69
2023-03-26T01:09:12.681Z,1000.73
2023-03-26T01:10:12.616Z,1000.69
2023-03-26T01:11:12.548Z,1000.71
2023-03-26T01:12:12.526Z,1001.03
2023-03-26T01:13:23.548Z,1000.83
2023-03-26T01:14:13.765Z,1000.98
2023-03-26T01:15:14.323Z,1000.98
2023-03-26T01:16:19.121Z,1000.63
2023-03-26T01:17:19.082Z,1000.60
2023-03-26T01:18:18.606Z,1000.58
2023-03-26T01:19:20.644Z,1000.58
2023-03-26T01:20:16.989Z,1000.61
2023-03-26T01:21:19.591Z,1000.51
2023-03-26T01:23:47.712Z,1000.48
2023-03-26T01:24:46.392Z,1000.51
2023-03-26T01:25:46.006Z,1000.45
2023-03-26T01:26:45.187Z,1000.44
2023-03-26T01:27:46.950Z,1000.47
2023-03-26T01:28:46.441Z,1000.70
2023-03-26T01:29:53.159Z,1000.72
2023-03-26T01:30:50.161Z,1000.50
2023-03-26T01:31:55.673Z,1000.38
2023-03-26T01:33:48.109Z,1000.68
2023-03-26T01:34:48.721Z,1000.30
2023-03-26T01:36:55.210Z,1000.32
2023-03-26T01:37:48.641Z,1000.51
2023-03-26T01:44:21.916Z,1000.57
2023-03-26T01:45:21.931Z,1000.19
2023-03-26T01:46:22.522Z,1000.18
2023-03-26T01:47:24.488Z,1000.18
2023-03-26T01:56:50.190Z,1000.40
2023-03-26T01:57:49.924Z,1000.36
2023-03-26T01:59:05.501Z,1000.35
2023-03-26T02:01:16.543Z,1000.08
2023-03-26T02:01:55.094Z,1000.03
2023-03-26T02:02:57.125Z,1000.35
2023-03-26T02:03:51.477Z,1000.34
2023-03-26T02:04:54.966Z,1000.32
2023-03-26T02:05:57.578Z,1000.01
2023-03-26T02:06:59.494Z,1000.05
2023-03-26T02:07:55.467Z,999.97
2023-03-26T02:08:49.894Z,999.97
2023-03-26T02:09:51.459Z,1000.33
2023-03-26T02:10:49.431Z,999.97
2023-03-26T02:11:50.745Z,1000.00
2023-03-26T02:12:53.953Z,999.96
2023-03-26T02:13:51.457Z,999.94
2023-03-26T02:14:54.520Z,999.92
2023-03-26T02:16:13.596Z,999.94
2023-03-26T02:16:51.490Z,999.99
2023-03-26T02:17:54.531Z,999.95
2023-03-26T02:18:48.840Z,999.91
2023-03-26T02:19:53.763Z,1000.23
2023-03-26T02:20:51.968Z,999.90
2023-03-26T02:21:55.462Z,1000.14
2023-03-26T02:22:52.457Z,999.87
2023-03-26T02:23:58.350Z,1000.06
2023-03-26T02:25:56.953Z,1000.17
2023-03-26T02:27:51.459Z,1000.19
2023-03-26T02:29:02.967Z,1000.14
2023-03-26T02:30:52.488Z,1000.12
2023-03-26T02:31:48.648Z,1000.12
2023-03-26T02:33:58.181Z,999.70
2023-03-26T02:38:42.503Z,999.59
2023-03-26T02:41:26.541Z,999.87
2023-03-26T02:42:41.056Z,999.49
2023-03-26T02:47:31.020Z,999.40
2023-03-26T02:49:32.536Z,999.41
2023-03-26T02:50:47.517Z,999.72
2023-03-26T02:51:26.895Z,999.65
2023-03-26T02:52:20.161Z,999.71
2023-03-26T02:53:20.470Z,999.36
2023-03-26T02:54:20.074Z,999.37
2023-03-26T02:55:20.231Z,999.70
2023-03-26T02:56:20.492Z,999.68
2023-03-26T02:57:19.962Z,999.37
2023-03-26T03:01:51.939Z,999.23
2023-03-26T03:02:52.704Z,999.51
2023-03-26T03:03:51.720Z,999.14
2023-03-26T03:04:52.399Z,999.17
2023-03-26T03:05:52.156Z,999.12
2023-03-26T03:06:52.564Z,999.45
2023-03-26T03:07:52.478Z,999.09
2023-03-26T03:08:51.817Z,999.41
2023-03-26T03:09:51.888Z,999.09
2023-03-26T03:10:51.615Z,999.43
2023-03-26T03:11:58.502Z,999.41
2023-03-26T03:12:50.851Z,999.38
2023-03-26T03:13:50.945Z,999.36
2023-03-26T03:14:50.448Z,999.03
2023-03-26T03:15:50.363Z,999.06
2023-03-26T03:16:50.357Z,998.98
2023-03-26T03:17:50.324Z,998.97
2023-03-26T03:18:50.287Z,999.11
2023-03-26T03:19:50.263Z,998.99
2023-03-26T03:20:50.237Z,999.31
2023-03-26T03:21:50.141Z,999.28
2023-03-26T03:22:50.067Z,999.29
2023-03-26T03:23:50.071Z,999.01
2023-03-26T03:24:50.003Z,998.94
2023-03-26T03:25:49.995Z,998.95
2023-03-26T03:26:49.923Z,998.89
2023-03-26T03:27:49.868Z,998.87
2023-03-26T03:28:49.865Z,998.88
2023-03-26T03:29:49.802Z,998.85
2023-03-26T03:30:49.811Z,998.85
2023-03-26T03:31:49.744Z,998.91
2023-03-26T03:32:49.724Z,998.84
2023-03-26T03:33:49.652Z,998.79
2023-03-26T03:34:49.582Z,998.76
2023-03-26T03:35:49.689Z,998.77
2023-03-26T03:36:49.536Z,998.75
2023-03-26T03:37:49.473Z,998.78
2023-03-26T03:38:49.435Z,998.77
2023-03-26T03:39:49.359Z,998.77
2023-03-26T03:40:49.362Z,999.11
2023-03-26T03:41:49.350Z,999.11
2023-03-26T03:42:49.249Z,999.10
2023-03-26T03:43:49.230Z,999.09
2023-03-26T03:44:49.173Z,999.05
2023-03-26T03:45:49.130Z,998.98
2023-03-26T03:46:49.071Z,998.69
2023-03-26T03:47:49.081Z,998.96
2023-03-26T03:48:48.972Z,999.04
2023-03-26T03:49:48.932Z,998.69
2023-03-26T03:50:48.909Z,998.65
2023-03-26T03:51:48.872Z,998.64
2023-03-26T03:52:48.813Z,998.64
2023-03-26T03:53:48.756Z,998.75
2023-03-26T03:54:48.730Z,998.56
2023-03-26T03:55:48.662Z,998.60
2023-03-26T03:56:48.674Z,998.53
2023-03-26T03:57:48.622Z,998.57
2023-03-26T03:58:48.635Z,998.86
2023-03-26T03:59:48.573Z,998.49
2023-03-26T04:00:48.490Z,998.57
2023-03-26T04:01:48.471Z,998.82
2023-03-26T04:02:48.519Z,998.82
2023-03-26T04:03:48.517Z,998.50
2023-03-26T04:04:48.336Z,998.82
2023-03-26T04:05:48.265Z,998.77
2023-03-26T04:06:48.214Z,998.77
2023-03-26T04:07:48.220Z,998.48
2023-03-26T04:08:48.146Z,998.78
2023-03-26T04:09:48.133Z,998.45
2023-03-26T04:10:48.035Z,998.54
2023-03-26T04:11:47.977Z,998.75
2023-03-26T04:12:47.940Z,998.54
2023-03-26T04:13:47.936Z,998.37
2023-03-26T04:14:47.877Z,998.37
2023-03-26T04:15:48.504Z,998.66
2023-03-26T04:16:47.789Z,998.32
2023-03-26T04:17:47.750Z,998.65
2023-03-26T04:18:47.707Z,998.29
2023-03-26T04:19:47.652Z,998.24
2023-03-26T04:20:47.638Z,998.24
2023-03-26T04:21:47.559Z,998.21
2023-03-26T04:22:47.553Z,998.49
2023-03-26T04:23:47.486Z,998.53
2023-03-26T04:24:47.451Z,998.17
2023-03-26T04:25:47.423Z,998.49
2023-03-26T04:26:47.380Z,998.44
2023-03-26T04:27:47.328Z,998.10
2023-03-26T04:28:47.267Z,998.08
2023-03-26T04:29:47.236Z,998.09
2023-03-26T04:30:47.245Z,998.44
2023-03-26T04:31:47.316Z,998.10
2023-03-26T04:32:47.160Z,998.41
2023-03-26T04:33:47.103Z,998.38
2023-03-26T04:34:47.033Z,998.34
2023-03-26T04:35:47.071Z,998.35
2023-03-26T04:36:46.998Z,998.36
2023-03-26T04:37:46.918Z,998.02
2023-03-26T04:38:46.872Z,997.97
2023-03-26T04:39:47.469Z,997.98
2023-03-26T04:40:46.775Z,997.99
2023-03-26T04:41:46.729Z,998.27
2023-03-26T04:42:46.741Z,997.95
2023-03-26T04:43:46.640Z,998.27
2023-03-26T04:44:46.624Z,997.88
2023-03-26T04:45:46.569Z,998.17
2023-03-26T04:46:46.597Z,997.82
2023-03-26T04:47:46.733Z,998.09
2023-03-26T04:48:46.428Z,997.86
2023-03-26T04:49:46.417Z,997.76
2023-03-26T04:50:46.342Z,997.73
2023-03-26T04:51:46.299Z,998.08
2023-03-26T04:52:46.265Z,998.06
2023-03-26T04:53:46.230Z,998.09
2023-03-26T04:54:46.199Z,997.74
2023-03-26T04:55:46.126Z,997.70
2023-03-26T04:56:46.154Z,997.69
2023-03-26T04:57:46.044Z,998.03
2023-03-26T04:58:45.997Z,997.98
2023-03-26T04:59:45.960Z,997.62
2023-03-26T05:00:45.954Z,997.77
2023-03-26T05:01:46.168Z,997.56
2023-03-26T05:02:46.013Z,997.56
2023-03-26T05:03:46.017Z,997.53
2023-03-26T05:04:45.923Z,997.87
2023-03-26T05:05:45.710Z,997.52
2023-03-26T05:06:45.676Z,997.80
2023-03-26T05:07:45.630Z,997.48
2023-03-26T05:08:45.594Z,997.51
2023-03-26T05:09:45.538Z,997.46
2023-03-26T05:10:45.514Z,997.55
2023-03-26T05:11:45.479Z,997.50
2023-03-26T05:12:45.409Z,997.48
2023-03-26T05:13:45.365Z,997.50
2023-03-26T05:14:45.339Z,997.47
2023-03-26T05:15:45.300Z,997.84
2023-03-26T05:16:45.260Z,997.49
2023-03-26T05:17:45.230Z,997.44
2023-03-26T05:18:45.158Z,997.79
2023-03-26T05:19:45.131Z,997.73
2023-03-26T05:20:45.092Z,997.75
2023-03-26T05:21:45.036Z,997.48
2023-03-26T05:22:45.000Z,997.80
2023-03-26T05:23:44.960Z,997.74
2023-03-26T05:24:44.900Z,997.52
2023-03-26T05:25:44.880Z,997.74
2023-03-26T05:26:44.813Z,997.73
2023-03-26T05:27:44.780Z,997.70
2023-03-26T05:28:44.728Z,997.72
2023-03-26T05:29:44.689Z,997.71
2023-03-26T05:30:44.645Z,997.66
2023-03-26T05:31:44.624Z,997.66
2023-03-26T05:32:44.681Z,997.66
2023-03-26T05:33:44.674Z,997.30
2023-03-26T05:34:44.478Z,997.29
2023-03-26T05:35:44.530Z,997.28
2023-03-26T05:36:44.402Z,997.24
2023-03-26T05:37:44.368Z,997.20
2023-03-26T05:38:44.310Z,997.20
2023-03-26T05:39:44.270Z,997.18
2023-03-26T05:40:44.228Z,997.15
2023-03-26T05:41:44.198Z,997.09
2023-03-26T05:42:44.162Z,997.13
2023-03-26T05:43:44.101Z,997.10
2023-03-26T05:44:44.053Z,997.24
2023-03-26T05:45:44.036Z,997.10
2023-03-26T05:46:43.980Z,997.18
2023-03-26T05:47:43.997Z,997.05
2023-03-26T05:48:43.900Z,997.05
2023-03-26T05:49:43.857Z,997.36
2023-03-26T05:50:43.801Z,997.37
2023-03-26T05:51:43.770Z,997.22
2023-03-26T05:52:43.744Z,996.98
2023-03-26T05:53:43.679Z,996.96
2023-03-26T05:54:43.632Z,996.95
2023-03-26T05:55:43.591Z,997.30
2023-03-26T05:56:43.604Z,997.27
2023-03-26T05:57:43.516Z,996.92
2023-03-26T05:58:43.492Z,996.86
2023-03-26T05:59:43.425Z,996.98
2023-03-26T06:00:43.401Z,996.83
2023-03-26T06:01:43.346Z,996.85
2023-03-26T06:02:43.331Z,996.82
2023-03-26T06:03:43.404Z,996.81
2023-03-26T06:04:43.307Z,996.80
2023-03-26T06:05:43.181Z,996.79
2023-03-26T06:06:43.144Z,996.76
2023-03-26T06:07:43.098Z,996.77
2023-03-26T06:08:43.044Z,996.75
2023-03-26T06:09:43.015Z,997.05
2023-03-26T06:10:42.967Z,997.04
2023-03-26T06:11:42.959Z,996.70
2023-03-26T06:12:42.891Z,997.03
2023-03-26T06:13:42.847Z,996.67
2023-03-26T06:14:42.920Z,996.70
2023-03-26T06:15:42.868Z,996.71
2023-03-26T06:16:42.716Z,996.88
2023-03-26T06:17:42.728Z,997.00
2023-03-26T06:18:42.684Z,996.66
2023-03-26T06:19:42.592Z,996.98
2023-03-26T06:20:42.563Z,996.62
2023-03-26T06:21:42.506Z,996.62
2023-03-26T06:22:42.455Z,996.62
2023-03-26T06:23:42.420Z,996.57
2023-03-26T06:24:42.401Z,996.91
2023-03-26T06:25:42.338Z,996.63
2023-03-26T06:26:42.290Z,996.56
2023-03-26T06:27:42.249Z,996.64
2023-03-26T06:28:42.220Z,996.56
2023-03-26T06:29:42.178Z,996.84
2023-03-26T06:30:42.167Z,996.64
2023-03-26T06:31:42.170Z,996.50
2023-03-26T06:32:42.068Z,996.50
2023-03-26T06:33:42.009Z,996.48
2023-03-26T06:34:41.946Z,996.53
2023-03-26T06:35:41.920Z,996.49
2023-03-26T06:36:41.887Z,996.54
2023-03-26T06:37:41.836Z,996.83
2023-03-26T06:38:41.843Z,996.55
2023-03-26T06:39:41.782Z,996.76
2023-03-26T06:40:41.711Z,996.45
2023-03-26T06:41:41.659Z,996.43
2023-03-26T06:43:09.074Z,996.41
2023-03-26T06:43:41.573Z,996.74
2023-03-26T06:44:41.538Z,996.37
2023-03-26T06:45:41.486Z,996.36
2023-03-26T06:46:41.504Z,996.39
2023-03-26T06:47:41.501Z,996.39
2023-03-26T06:48:41.372Z,996.34
2023-03-26T06:49:42.684Z,996.70
2023-03-26T06:50:41.285Z,996.66
2023-03-26T06:51:41.254Z,996.33
2023-03-26T06:52:41.203Z,996.29
2023-03-26T06:53:41.180Z,996.64
2023-03-26T06:54:41.125Z,996.28
2023-03-26T06:55:41.093Z,996.63
2023-03-26T06:56:41.064Z,996.58
2023-03-26T06:57:40.995Z,996.27
2023-03-26T06:58:40.965Z,996.22
2023-03-26T06:59:40.932Z,996.60
2023-03-26T07:00:40.895Z,996.21
2023-03-26T07:01:40.830Z,996.17
2023-03-26T07:02:40.820Z,996.52
2023-03-26T07:03:40.813Z,996.18
2023-03-26T07:04:40.792Z,996.17
2023-03-26T07:05:40.667Z,996.13
2023-03-26T07:06:40.608Z,996.14
2023-03-26T07:07:46.580Z,996.43
2023-03-26T07:08:40.556Z,996.41
2023-03-26T07:09:40.499Z,996.40
2023-03-26T07:10:40.433Z,996.38
2023-03-26T07:11:40.407Z,996.35
2023-03-26T07:12:40.355Z,996.35
2023-03-26T07:13:40.329Z,996.02
2023-03-26T07:14:40.262Z,995.94
2023-03-26T07:15:40.243Z,995.95
2023-03-26T07:16:40.233Z,995.95
2023-03-26T07:17:40.183Z,995.86
2023-03-26T07:18:40.102Z,995.88
2023-03-26T07:19:40.228Z,996.24
2023-03-26T07:20:40.025Z,996.18
2023-03-26T07:21:39.993Z,995.83
2023-03-26T07:22:39.942Z,995.85
2023-03-26T07:23:39.893Z,995.92
2023-03-26T07:24:39.851Z,996.21
2023-03-26T07:25:39.802Z,995.85
2023-03-26T07:26:39.753Z,996.21
2023-03-26T07:27:39.733Z,995.87
2023-03-26T07:28:39.701Z,995.86
2023-03-26T07:29:39.636Z,995.85
2023-03-26T07:30:39.622Z,996.18
2023-03-26T07:31:39.770Z,995.84
2023-03-26T07:32:39.565Z,996.25
2023-03-26T07:33:39.466Z,996.22
2023-03-26T07:34:39.433Z,995.97
2023-03-26T07:35:39.438Z,995.91
2023-03-26T07:36:39.344Z,996.20
2023-03-26T07:37:39.309Z,995.87
2023-03-26T07:38:39.250Z,995.87
2023-03-26T07:39:39.217Z,995.84
2023-03-26T07:40:39.179Z,995.87
2023-03-26T07:41:39.131Z,996.18
2023-03-26T07:42:39.127Z,996.12
2023-03-26T07:43:39.056Z,995.93
2023-03-26T07:44:39.018Z,995.75
2023-03-26T07:45:39.027Z,995.75
2023-03-26T07:46:38.912Z,996.07
2023-03-26T07:47:38.918Z,995.74
2023-03-26T07:48:38.844Z,995.71
2023-03-26T07:49:38.821Z,995.71
2023-03-26T07:50:38.763Z,995.73
2023-03-26T07:51:39.611Z,996.02
2023-03-26T07:52:38.663Z,996.08
2023-03-26T07:53:38.643Z,995.70
2023-03-26T07:54:38.593Z,995.69
2023-03-26T07:55:38.547Z,995.64
2023-03-26T07:56:38.640Z,995.67
2023-03-26T07:57:38.515Z,995.65
2023-03-26T07:58:38.413Z,995.62
2023-03-26T07:59:38.383Z,995.64
2023-03-26T08:00:38.350Z,995.98
2023-03-26T08:01:38.293Z,995.98
2023-03-26T08:02:38.281Z,995.57
2023-03-26T08:03:38.279Z,995.95
2023-03-26T08:04:38.339Z,995.57
2023-03-26T08:05:40.176Z,995.94
2023-03-26T08:06:38.092Z,995.91
2023-03-26T08:07:38.044Z,995.89
2023-03-26T08:08:38.034Z,995.60
2023-03-26T08:09:37.956Z,995.67
2023-03-26T08:10:37.911Z,995.94
2023-03-26T08:11:37.888Z,995.57
2023-03-26T08:12:37.846Z,995.56
2023-03-26T08:13:37.818Z,995.57
2023-03-26T08:14:37.742Z,995.61
2023-03-26T08:15:37.981Z,995.58
2023-03-26T08:16:37.674Z,995.60
2023-03-26T08:17:37.641Z,995.62
2023-03-26T08:18:37.578Z,995.61
2023-03-26T08:19:37.537Z,995.59
2023-03-26T08:20:37.495Z,995.57
2023-03-26T08:21:37.451Z,995.56
2023-03-26T08:22:37.426Z,995.57
2023-03-26T08:23:37.368Z,995.91
2023-03-26T08:24:37.327Z,995.57
2023-03-26T08:25:38.164Z,995.92
2023-03-26T08:26:37.242Z,995.77
2023-03-26T08:27:37.226Z,995.89
2023-03-26T08:28:37.153Z,995.54
2023-03-26T08:29:37.107Z,995.55
2023-03-26T08:30:37.091Z,995.89
2023-03-26T08:31:37.042Z,995.52
2023-03-26T08:32:37.038Z,995.85
2023-03-26T08:33:38.388Z,995.88
2023-03-26T08:34:36.912Z,995.48
2023-03-26T08:35:36.919Z,995.49
2023-03-26T08:36:36.821Z,995.48
2023-03-26T08:37:36.786Z,995.85
2023-03-26T08:38:36.745Z,995.54
2023-03-26T08:39:36.698Z,995.53
2023-03-26T08:40:36.670Z,995.64
2023-03-26T08:41:36.620Z,995.53
2023-03-26T08:42:36.585Z,995.50
2023-03-26T08:43:36.545Z,995.85
2023-03-26T08:44:37.133Z,995.57
2023-03-26T08:45:36.443Z,995.50
2023-03-26T08:46:36.430Z,995.44
2023-03-26T08:47:36.397Z,995.46
2023-03-26T08:48:36.426Z,995.48
2023-03-26T08:49:36.324Z,995.43
2023-03-26T08:50:36.270Z,995.46
2023-03-26T08:51:36.239Z,995.37
2023-03-26T08:52:36.237Z,995.58
2023-03-26T08:53:36.138Z,995.45
2023-03-26T08:54:37.086Z,995.76
2023-03-26T08:55:36.128Z,995.66
2023-03-26T08:56:36.018Z,995.40
2023-03-26T08:57:35.948Z,995.38
2023-03-26T08:58:35.941Z,995.38
2023-03-26T08:59:36.739Z,995.38
2023-03-26T09:00:36.541Z,995.52
2023-03-26T09:01:35.848Z,995.70
2023-03-26T09:02:37.601Z,995.39
2023-03-26T09:03:38.561Z,995.41
2023-03-26T09:04:35.723Z,995.75
2023-03-26T09:05:35.695Z,995.75
2023-03-26T09:06:36.213Z,995.73
2023-03-26T09:07:37.046Z,995.73
2023-03-26T09:08:35.544Z,995.47
2023-03-26T09:09:36.169Z,995.39
2023-03-26T09:10:36.044Z,995.40
2023-03-26T09:11:35.442Z,995.41
2023-03-26T09:12:35.333Z,995.39
2023-03-26T09:13:35.314Z,995.38
2023-03-26T09:14:35.323Z,995.42
2023-03-26T09:15:36.137Z,995.40
2023-03-26T09:16:35.269Z,995.41
2023-03-26T09:17:35.216Z,995.45
2023-03-26T09:18:35.090Z,995.36
2023-03-26T09:19:35.155Z,995.66
2023-03-26T09:20:34.995Z,995.46
2023-03-26T09:21:34.963Z,995.37
2023-03-26T09:22:34.964Z,995.32
2023-03-26T09:23:34.869Z,995.73
2023-03-26T09:24:34.870Z,995.66
2023-03-26T09:25:34.801Z,995.32
2023-03-26T09:26:34.751Z,995.32
2023-03-26T09:27:34.710Z,995.67
2023-03-26T09:28:34.687Z,995.63
2023-03-26T09:29:34.651Z,995.29
2023-03-26T09:30:34.619Z,995.28
2023-03-26T09:31:34.560Z,995.29
2023-03-26T09:32:34.544Z,995.57
2023-03-26T09:33:34.458Z,995.25
2023-03-26T09:34:34.554Z,995.28
2023-03-26T09:35:34.450Z,995.22
2023-03-26T09:36:34.373Z,995.21
2023-03-26T09:37:34.297Z,995.55
2023-03-26T09:38:34.264Z,995.23
2023-03-26T09:39:34.226Z,995.54
2023-03-26T09:40:34.172Z,995.17
2023-03-26T09:41:34.121Z,995.12
2023-03-26T09:42:34.102Z,995.53
2023-03-26T09:43:34.048Z,995.52
2023-03-26T09:44:34.016Z,995.18
2023-03-26T09:45:33.958Z,995.18
2023-03-26T09:46:37.494Z,995.19
2023-03-26T09:47:42.599Z,995.17
2023-03-26T09:48:33.859Z,995.54
2023-03-26T09:49:33.818Z,995.44
2023-03-26T09:50:34.625Z,995.45
2023-03-26T09:51:33.695Z,995.48
2023-03-26T09:52:33.698Z,995.08
2023-03-26T09:53:33.639Z,995.16
2023-03-26T09:54:33.572Z,995.55
2023-03-26T09:55:33.546Z,995.16
2023-03-26T09:56:33.537Z,995.12
2023-03-26T09:57:33.503Z,995.14
2023-03-26T09:58:33.432Z,995.15
2023-03-26T09:59:33.366Z,995.53
2023-03-26T10:00:33.407Z,995.50
2023-03-26T10:01:33.316Z,995.49
2023-03-26T10:02:45.485Z,995.49
2023-03-26T10:03:33.276Z,995.13
2023-03-26T10:04:33.292Z,995.16
2023-03-26T10:05:33.098Z,995.24
2023-03-26T10:06:33.074Z,995.49
2023-03-26T10:07:33.029Z,995.49
2023-03-26T10:08:32.984Z,995.12
2023-03-26T10:09:34.573Z,995.12
2023-03-26T10:10:33.178Z,995.21
2023-03-26T10:11:32.856Z,995.45
2023-03-26T10:12:33.011Z,995.48
2023-03-26T10:13:32.791Z,995.10
2023-03-26T10:14:32.748Z,995.10
2023-03-26T10:15:32.691Z,995.07
2023-03-26T10:16:32.738Z,995.12
2023-03-26T10:19:17.958Z,995.44
2023-03-26T10:20:17.374Z,995.39
2023-03-26T10:21:17.383Z,995.03
2023-03-26T10:22:17.287Z,995.40
2023-03-26T10:23:17.395Z,995.05
2023-03-26T10:24:17.228Z,995.00
2023-03-26T10:25:17.190Z,995.37
2023-03-26T10:26:17.062Z,995.07
2023-03-26T10:27:17.334Z,995.00
2023-03-26T10:28:17.163Z,995.06
2023-03-26T10:29:16.950Z,995.00
2023-03-26T10:30:16.569Z,995.37
2023-03-26T10:31:16.997Z,995.34
2023-03-26T10:32:16.178Z,995.01
2023-03-26T10:33:16.160Z,994.98
2023-03-26T10:34:28.898Z,995.32
2023-03-26T10:35:16.735Z,994.97
2023-03-26T10:36:15.965Z,994.97
2023-03-26T10:37:16.849Z,995.34
2023-03-26T10:38:15.851Z,995.25
2023-03-26T10:39:36.267Z,994.97
2023-03-26T10:40:18.241Z,995.04
2023-03-26T10:41:15.755Z,995.30
2023-03-26T10:42:17.010Z,994.96
2023-03-26T10:43:18.723Z,994.98
2023-03-26T10:44:16.219Z,994.95
2023-03-26T10:45:16.220Z,994.97
2023-03-26T10:46:16.436Z,994.91
2023-03-26T10:47:16.405Z,994.95
2023-03-26T10:48:16.219Z,995.28
2023-03-26T10:49:17.268Z,995.08
2023-03-26T10:50:17.089Z,994.87
2023-03-26T10:51:16.257Z,995.11
2023-03-26T10:52:15.257Z,994.86
2023-03-26T10:53:15.213Z,994.87
2023-03-26T10:54:15.727Z,995.19
2023-03-26T10:55:15.071Z,994.88
2023-03-26T10:56:15.108Z,995.17
2023-03-26T10:57:15.108Z,994.81
2023-03-26T10:58:15.055Z,994.85
2023-03-26T10:59:15.103Z,994.84
2023-03-26T11:00:15.724Z,994.86
2023-03-26T11:01:16.377Z,994.86
2023-03-26T11:02:15.747Z,994.81
2023-03-26T11:03:15.277Z,994.78
2023-03-26T11:04:14.986Z,994.84
2023-03-26T11:05:14.744Z,994.78
2023-03-26T11:06:14.659Z,994.78
2023-03-26T11:07:14.647Z,994.84
2023-03-26T11:08:14.683Z,994.74
2023-03-26T11:09:14.642Z,994.72
2023-03-26T11:10:14.570Z,994.73
2023-03-26T11:11:16.234Z,995.09
2023-03-26T11:12:26.584Z,994.75
2023-03-26T11:13:19.261Z,994.75
2023-03-26T11:14:35.284Z,994.71
2023-03-26T11:18:56.819Z,994.71
2023-03-26T11:19:53.156Z,995.07
2023-03-26T11:20:32.751Z,995.08
2023-03-26T11:21:20.834Z,995.08
2023-03-26T11:23:16.739Z,995.07
2023-03-26T11:23:32.754Z,995.05
2023-03-26T11:24:20.260Z,994.76
2023-03-26T11:25:17.450Z,994.70
2023-03-26T11:26:17.508Z,994.72
2023-03-26T11:27:17.897Z,995.04
2023-03-26T11:28:16.388Z,995.06
2023-03-26T11:29:31.589Z,995.07
2023-03-26T11:30:16.313Z,994.77
2023-03-26T11:31:16.284Z,994.73
2023-03-26T11:32:17.743Z,995.07
2023-03-26T11:33:16.929Z,994.84
2023-03-26T11:34:16.741Z,995.06
2023-03-26T11:35:16.744Z,995.08
2023-03-26T11:36:18.286Z,995.07
2023-03-26T11:37:17.634Z,994.64
2023-03-26T11:38:17.756Z,994.65
2023-03-26T11:39:18.542Z,994.64
2023-03-26T11:40:17.061Z,994.65
2023-03-26T11:41:16.391Z,994.87
2023-03-26T11:42:15.853Z,994.62
2023-03-26T11:43:15.708Z,994.64
2023-03-26T11:44:15.722Z,994.61
2023-03-26T11:45:15.695Z,994.95
2023-03-26T11:46:17.153Z,994.59
2023-03-26T11:47:15.580Z,994.63
2023-03-26T11:48:16.531Z,994.98
2023-03-26T11:49:21.278Z,994.94
2023-03-26T11:52:26.758Z,994.62
2023-03-26T11:54:50.294Z,994.58
2023-03-26T11:56:18.258Z,994.60
2023-03-26T11:57:17.693Z,994.61
2023-03-26T11:58:21.748Z,994.61
2023-03-26T11:59:18.436Z,994.63
2023-03-26T12:00:16.787Z,994.62
2023-03-26T12:01:17.809Z,994.96
2023-03-26T12:02:15.929Z,994.61
2023-03-26T12:03:17.341Z,994.99
2023-03-26T12:04:17.318Z,994.66
2023-03-26T12:05:19.290Z,994.71
2023-03-26T12:06:24.749Z,994.67
2023-03-26T12:07:29.767Z,994.66
2023-03-26T12:08:19.290Z,994.65
2023-03-26T12:21:13.292Z,994.65
2023-03-26T12:22:13.323Z,995.00
2023-03-26T12:23:13.588Z,994.98
2023-03-26T12:24:13.240Z,994.67
2023-03-26T12:25:13.349Z,994.97
2023-03-26T12:28:42.609Z,994.67
2023-03-26T12:29:40.458Z,995.02
2023-03-26T12:30:40.648Z,994.99
2023-03-26T12:31:40.520Z,994.74
2023-03-26T12:32:46.129Z,994.74
2023-03-26T12:33:40.387Z,994.94
2023-03-26T12:34:40.804Z,995.09
2023-03-26T12:35:40.447Z,995.15
2023-03-26T12:36:40.226Z,994.84
2023-03-26T12:37:40.406Z,994.96
2023-03-26T12:38:42.621Z,994.93
2023-03-26T12:40:08.705Z,994.85
2023-03-26T12:40:41.262Z,995.18
2023-03-26T12:44:44.019Z,995.02
2023-03-26T12:44:46.085Z,994.85
2023-03-26T12:44:55.429Z,994.86
2023-03-26T12:45:08.270Z,994.92
2023-03-26T12:45:41.473Z,994.88
2023-03-26T12:47:56.098Z,994.86
2023-03-26T12:48:00.766Z,995.25
2023-03-26T12:48:40.018Z,994.88
2023-03-26T12:52:11.953Z,995.29
2023-03-26T12:53:14.386Z,994.95
2023-03-26T12:54:20.573Z,995.31
2023-03-26T12:55:12.060Z,994.90
2023-03-26T12:56:11.531Z,994.93
2023-03-26T12:57:13.241Z,995.25
2023-03-26T12:58:13.923Z,994.95
2023-03-26T12:59:11.333Z,994.92
2023-03-26T13:00:11.350Z,995.35
2023-03-26T13:01:11.493Z,994.96
2023-03-26T13:02:33.072Z,995.24
2023-03-26T13:03:14.396Z,994.97
2023-03-26T13:04:10.309Z,994.86
2023-03-26T13:05:11.075Z,994.88
2023-03-26T13:06:10.138Z,994.90
2023-03-26T13:07:10.119Z,994.98
2023-03-26T13:08:10.098Z,994.90
2023-03-26T13:09:10.061Z,994.91
2023-03-26T13:10:09.992Z,994.91
2023-03-26T13:11:09.974Z,995.16
2023-03-26T13:12:09.910Z,994.90
2023-03-26T13:13:09.975Z,995.23
2023-03-26T13:14:09.903Z,994.85
2023-03-26T13:15:10.070Z,995.22
2023-03-26T13:16:13.835Z,994.91
2023-03-26T13:17:09.830Z,995.20
2023-03-26T13:18:09.713Z,994.91
2023-03-26T13:19:09.681Z,995.18
2023-03-26T13:20:09.619Z,994.91
2023-03-26T13:21:09.579Z,994.89
2023-03-26T13:22:09.554Z,994.96
2023-03-26T13:23:09.480Z,995.26
2023-03-26T13:24:09.438Z,995.00
2023-03-26T13:25:09.433Z,994.95
2023-03-26T13:26:09.334Z,994.88